Time;durP1;ratioP1;P1;durP2;ratioP2;P2;SDS_P1;SDS_P2;PMS_P1;PMS_P2;Temp;Humidity;BMP_temperature;BMP_pressure;BME280_temperature;BME280_humidity;BME280_pressure;Samples;Min_cycle;Max_cycle;Signal;HPM_P1;HPM_P2
2022/10/23 00:01:32;;;;;;;13.13;4.45;;;12.50;99.90;;;;;;5094756;28;20106;-77
2022/10/23 00:04:19;;;;;;;13.75;4.40;;;12.50;99.90;;;;;;5094749;28;20026;-77
2022/10/23 00:06:45;;;;;;;11.45;4.40;;;12.40;99.90;;;;;;5087859;28;20044;-77
2022/10/23 00:09:14;;;;;;;9.07;4.57;;;12.30;99.90;;;;;;5084908;28;20362;-77
2022/10/23 00:11:41;;;;;;;11.23;4.63;;;12.30;99.90;;;;;;5075288;28;20024;-77
2022/10/23 00:14:07;;;;;;;12.75;5.85;;;12.30;99.90;;;;;;5087397;28;20035;-77
2022/10/23 00:16:38;;;;;;;13.55;5.97;;;12.20;99.90;;;;;;5087781;28;20035;-77
2022/10/23 00:19:10;;;;;;;10.02;5.03;;;12.20;99.90;;;;;;5075082;28;20705;-77
2022/10/23 00:21:39;;;;;;;9.90;5.03;;;12.20;99.90;;;;;;5080787;28;20121;-76
2022/10/23 00:24:06;;;;;;;9.82;4.85;;;12.10;99.90;;;;;;5067613;28;20020;-76
2022/10/23 00:26:31;;;;;;;11.43;5.75;;;12.10;99.90;;;;;;5071958;28;20476;-77
2022/10/23 00:28:57;;;;;;;14.75;5.00;;;12.10;99.90;;;;;;5087944;28;20107;-76
2022/10/23 00:31:24;;;;;;;10.60;5.57;;;12.10;99.90;;;;;;5088625;28;20500;-77
2022/10/23 00:33:55;;;;;;;12.05;5.30;;;12.10;99.90;;;;;;5090094;28;20065;-76
2022/10/23 00:36:21;;;;;;;10.73;4.63;;;12.10;99.90;;;;;;5087725;28;20048;-76
2022/10/23 00:38:47;;;;;;;12.73;5.00;;;12.10;99.90;;;;;;5069230;28;20058;-77
2022/10/23 00:41:22;;;;;;;6.95;4.43;;;12.00;99.90;;;;;;5086335;28;20023;-77
2022/10/23 00:44:02;;;;;;;9.48;4.63;;;12.00;99.90;;;;;;5088675;28;20111;-76
2022/10/23 00:46:28;;;;;;;18.52;5.60;;;12.00;99.90;;;;;;5088359;28;20024;-76
2022/10/23 00:48:57;;;;;;;15.93;5.18;;;12.00;99.90;;;;;;5094769;28;20077;-76
2022/10/23 00:51:26;;;;;;;11.35;4.53;;;12.00;99.90;;;;;;5089477;28;20021;-76
2022/10/23 00:53:58;;;;;;;9.95;5.10;;;11.90;99.90;;;;;;5088916;28;20020;-77
2022/10/23 00:56:25;;;;;;;7.45;4.50;;;12.00;99.90;;;;;;5091314;28;20078;-76
2022/10/23 00:58:50;;;;;;;10.57;4.82;;;11.90;99.90;;;;;;5087254;28;20362;-77
2022/10/23 01:01:20;;;;;;;12.45;5.40;;;11.90;99.90;;;;;;5083248;28;20016;-76
2022/10/23 01:03:46;;;;;;;7.75;4.47;;;12.00;99.90;;;;;;5069750;28;20025;-77
2022/10/23 01:06:38;;;;;;;7.38;4.05;;;11.90;99.90;;;;;;5092718;28;20089;-76
2022/10/23 01:09:28;;;;;;;7.90;4.63;;;11.90;99.90;;;;;;5082691;28;20035;-77
2022/10/23 01:12:20;;;;;;;9.23;4.20;;;11.90;99.90;;;;;;5081404;28;20508;-77
2022/10/23 01:15:21;;;;;;;17.27;4.70;;;11.90;99.90;;;;;;5090555;28;20396;-77
2022/10/23 01:18:10;;;;;;;11.15;4.90;;;11.90;99.90;;;;;;5072322;28;20027;-77
2022/10/23 01:21:00;;;;;;;7.03;4.55;;;11.90;99.90;;;;;;5071673;28;20511;-76
2022/10/23 01:23:48;;;;;;;12.63;5.78;;;11.90;99.90;;;;;;5088689;28;20024;-76
2022/10/23 01:26:21;;;;;;;9.23;4.50;;;11.90;99.90;;;;;;5065717;28;20048;-77
2022/10/23 01:29:19;;;;;;;8.07;4.60;;;11.90;99.90;;;;;;5091940;28;20035;-77
2022/10/23 01:32:08;;;;;;;9.90;5.63;;;11.80;99.90;;;;;;5039763;28;20119;-77
2022/10/23 01:34:45;;;;;;;9.73;4.90;;;11.90;99.90;;;;;;5086502;28;20090;-77
2022/10/23 01:37:13;;;;;;;7.50;4.95;;;11.80;99.90;;;;;;5074202;28;20160;-76
2022/10/23 01:39:51;;;;;;;12.70;6.28;;;11.80;99.90;;;;;;5091753;28;20016;-76
2022/10/23 01:42:36;;;;;;;9.90;5.55;;;11.70;99.90;;;;;;5093360;28;20026;-75
2022/10/23 01:45:05;;;;;;;11.25;6.18;;;11.70;99.90;;;;;;5081747;28;20024;-76
2022/10/23 01:47:34;;;;;;;9.80;6.38;;;11.70;99.90;;;;;;5096180;28;20031;-76
2022/10/23 01:50:02;;;;;;;19.55;7.70;;;11.70;99.90;;;;;;5093820;28;20024;-76
2022/10/23 01:52:28;;;;;;;13.52;7.07;;;11.60;99.90;;;;;;5073050;28;20028;-77
2022/10/23 01:54:58;;;;;;;12.57;6.47;;;11.60;99.90;;;;;;5092128;28;20560;-77
2022/10/23 01:57:29;;;;;;;12.15;6.78;;;11.60;99.90;;;;;;5076314;28;20036;-77
2022/10/23 02:00:01;;;;;;;12.70;5.97;;;11.50;99.90;;;;;;5073188;28;20024;-77
2022/10/23 02:02:29;;;;;;;9.73;5.22;;;11.50;99.90;;;;;;5093945;28;20479;-76
2022/10/23 02:04:59;;;;;;;8.95;4.90;;;11.50;99.90;;;;;;5075230;28;20035;-76
2022/10/23 02:07:25;;;;;;;9.45;4.82;;;11.50;99.90;;;;;;5097933;28;20036;-77
2022/10/23 02:09:50;;;;;;;10.05;4.95;;;11.40;99.90;;;;;;5070249;28;20035;-77
2022/10/23 02:12:27;;;;;;;8.00;4.68;;;11.40;99.90;;;;;;5088819;28;20020;-77
2022/10/23 02:15:01;;;;;;;9.88;5.25;;;11.40;99.90;;;;;;5091399;28;20034;-77
2022/10/23 02:17:26;;;;;;;;;;;11.40;99.90;;;;;;5093262;28;20107;-77
2022/10/23 02:20:18;;;;;;;10.25;4.70;;;11.30;99.90;;;;;;5097092;28;19958;-77
2022/10/23 02:23:27;;;;;;;10.25;4.82;;;11.40;99.90;;;;;;5069137;28;20024;-76
2022/10/23 02:26:16;;;;;;;6.53;3.85;;;11.40;99.90;;;;;;5054744;28;20071;-76
2022/10/23 02:28:54;;;;;;;12.15;4.60;;;11.40;99.90;;;;;;5073897;28;20036;-77
2022/10/23 02:31:22;;;;;;;7.22;4.40;;;11.30;99.90;;;;;;5090899;28;20098;-77
2022/10/23 02:33:56;;;;;;;10.18;4.35;;;11.30;99.90;;;;;;5084920;28;20664;-76
2022/10/23 02:36:22;;;;;;;14.40;4.57;;;11.30;99.90;;;;;;5091333;28;20032;-77
2022/10/23 02:38:51;;;;;;;9.60;3.88;;;11.30;99.90;;;;;;5088367;28;20366;-77
2022/10/23 02:41:54;;;;;;;10.27;4.45;;;11.30;99.90;;;;;;5092167;28;20024;-76
2022/10/23 02:44:37;;;;;;;11.48;5.18;;;11.30;99.90;;;;;;5085998;28;20024;-77
2022/10/23 02:47:28;;;;;;;6.32;3.95;;;11.30;99.90;;;;;;5092400;28;20020;-77
2022/10/23 02:50:09;;;;;;;15.18;4.93;;;11.30;99.90;;;;;;5095863;28;20028;-77
2022/10/23 02:52:45;;;;;;;9.55;4.43;;;11.30;99.90;;;;;;5095456;28;20020;-78
2022/10/23 02:55:36;;;;;;;8.30;4.10;;;11.30;99.90;;;;;;5097875;28;20085;-77
2022/10/23 02:58:09;;;;;;;6.28;3.65;;;11.20;99.90;;;;;;5043738;28;20044;-77
2022/10/23 03:00:38;;;;;;;10.25;4.45;;;11.30;99.90;;;;;;5090620;28;20044;-77
2022/10/23 03:03:30;;;;;;;7.28;3.53;;;11.30;99.90;;;;;;5093540;28;20027;-77
2022/10/23 03:05:56;;;;;;;8.73;3.85;;;11.30;99.90;;;;;;5069032;28;20028;-77
2022/10/23 03:08:24;;;;;;;5.93;3.90;;;11.30;99.90;;;;;;5085370;28;20129;-77
2022/10/23 03:11:02;;;;;;;9.38;3.40;;;11.30;99.90;;;;;;5092798;28;20469;-77
2022/10/23 03:13:28;;;;;;;8.68;3.97;;;11.30;99.90;;;;;;5089441;28;20028;-76
2022/10/23 03:15:53;;;;;;;6.70;3.88;;;11.30;99.90;;;;;;5093842;28;20476;-76
2022/10/23 03:18:19;;;;;;;8.27;4.13;;;11.40;99.90;;;;;;5088735;28;20389;-77
2022/10/23 03:20:45;;;;;;;8.70;4.28;;;11.30;99.90;;;;;;5088631;28;20024;-76
2022/10/23 03:23:12;;;;;;;6.55;4.53;;;11.30;99.90;;;;;;5085257;28;20020;-77
2022/10/23 03:25:38;;;;;;;7.28;4.32;;;11.40;99.90;;;;;;5080651;28;20390;-77
2022/10/23 03:28:10;;;;;;;8.50;5.25;;;11.30;99.90;;;;;;5095789;28;20034;-77
2022/10/23 03:30:35;;;;;;;9.27;5.70;;;11.40;99.90;;;;;;5079129;28;20039;-77
2022/10/23 03:33:16;;;;;;;9.60;6.00;;;11.30;99.90;;;;;;5104142;28;20428;-77
2022/10/23 03:35:42;;;;;;;11.57;6.68;;;11.30;99.90;;;;;;5097603;28;20028;-78
2022/10/23 03:38:16;;;;;;;10.98;5.75;;;11.40;99.90;;;;;;5100353;28;20125;-78
2022/10/23 03:40:44;;;;;;;10.25;6.07;;;11.30;99.90;;;;;;5079788;28;20020;-77
2022/10/23 03:43:13;;;;;;;11.77;5.22;;;11.30;99.90;;;;;;5087422;28;20560;-76
2022/10/23 03:45:45;;;;;;;12.70;5.38;;;11.30;99.90;;;;;;5091475;28;20020;-77
2022/10/23 03:48:13;;;;;;;7.50;5.30;;;11.30;99.90;;;;;;5076669;28;20034;-77
2022/10/23 03:50:39;;;;;;;9.13;5.18;;;11.30;99.90;;;;;;5089833;28;20058;-78
2022/10/23 03:53:08;;;;;;;7.80;4.25;;;11.30;99.90;;;;;;5074211;28;20063;-77
2022/10/23 03:55:33;;;;;;;8.02;4.85;;;11.30;99.90;;;;;;5093303;28;20056;-77
2022/10/23 03:57:59;;;;;;;10.15;4.68;;;11.30;99.90;;;;;;5088346;28;20067;-77
2022/10/23 04:00:24;;;;;;;6.35;4.22;;;11.20;99.90;;;;;;5074602;28;20024;-77
2022/10/23 04:02:50;;;;;;;8.60;4.30;;;11.20;99.90;;;;;;5090365;28;20027;-77
2022/10/23 04:05:18;;;;;;;9.15;4.50;;;11.20;99.90;;;;;;5095575;28;20148;-77
2022/10/23 04:07:44;;;;;;;5.28;4.25;;;11.10;99.90;;;;;;5089835;28;20032;-77
2022/10/23 04:10:10;;;;;;;6.75;4.07;;;11.10;99.90;;;;;;5077347;28;20024;-77
2022/10/23 04:12:35;;;;;;;9.10;4.30;;;11.10;99.90;;;;;;5086736;28;20028;-76
2022/10/23 04:15:01;;;;;;;12.15;4.72;;;11.10;99.90;;;;;;5068454;28;20073;-76
2022/10/23 04:17:32;;;;;;;5.88;4.82;;;11.10;99.90;;;;;;5087620;28;20055;-76
2022/10/23 04:20:01;;;;;;;8.32;5.28;;;11.10;99.90;;;;;;5070537;28;20027;-76
2022/10/23 04:22:29;;;;;;;6.47;4.32;;;11.00;99.90;;;;;;5074883;28;20040;-77
2022/10/23 04:24:55;;;;;;;8.07;5.10;;;11.00;99.90;;;;;;5092801;28;20052;-77
2022/10/23 04:27:21;;;;;;;6.57;4.68;;;11.00;99.90;;;;;;5089160;28;20211;-74
2022/10/23 04:29:49;;;;;;;9.68;5.07;;;11.00;99.90;;;;;;5073855;28;20043;-76
2022/10/23 04:32:15;;;;;;;16.33;5.20;;;11.00;99.90;;;;;;5072806;28;20052;-77
2022/10/23 04:34:40;;;;;;;6.63;4.55;;;11.00;99.90;;;;;;5065740;28;20539;-76
2022/10/23 04:37:18;;;;;;;6.75;4.85;;;11.00;99.90;;;;;;5069249;28;20036;-77
2022/10/23 04:39:47;;;;;;;6.28;4.70;;;11.00;99.90;;;;;;5069898;28;20028;-77
2022/10/23 04:42:13;;;;;;;7.70;4.43;;;11.00;99.90;;;;;;5071583;28;20021;-76
2022/10/23 04:44:44;;;;;;;7.10;4.88;;;11.00;99.90;;;;;;5089744;28;20028;-78
2022/10/23 04:47:10;;;;;;;9.23;5.10;;;10.90;99.90;;;;;;5093606;28;20085;-76
2022/10/23 04:49:38;;;;;;;8.13;4.63;;;11.00;99.90;;;;;;5086785;28;20028;-76
2022/10/23 04:52:04;;;;;;;5.72;3.85;;;10.90;99.90;;;;;;5089301;28;20098;-77
2022/10/23 04:54:39;;;;;;;5.35;3.33;;;10.90;99.90;;;;;;5068786;28;20500;-77
2022/10/23 04:57:04;;;;;;;5.47;3.28;;;10.90;99.90;;;;;;5083095;28;20032;-76
2022/10/23 04:59:30;;;;;;;6.43;3.55;;;10.80;99.90;;;;;;5094966;28;20024;-76
2022/10/23 05:01:56;;;;;;;6.97;3.97;;;10.80;99.90;;;;;;5090622;28;20461;-75
2022/10/23 05:04:27;;;;;;;7.18;3.58;;;10.80;99.90;;;;;;5087948;28;20113;-73
2022/10/23 05:06:56;;;;;;;6.20;3.65;;;10.80;99.90;;;;;;5089640;28;20029;-75
2022/10/23 05:09:22;;;;;;;5.03;3.75;;;10.80;99.90;;;;;;5088514;28;20031;-74
2022/10/23 05:11:48;;;;;;;9.68;4.30;;;10.80;99.90;;;;;;5082177;28;20554;-74
2022/10/23 05:14:14;;;;;;;10.68;4.15;;;10.90;99.90;;;;;;5092839;28;20745;-74
2022/10/23 05:16:50;;;;;;;5.70;3.47;;;10.90;99.90;;;;;;5090064;28;20034;-75
2022/10/23 05:19:32;;;;;;;4.18;3.28;;;10.90;99.90;;;;;;5092179;28;20021;-75
2022/10/23 05:21:57;;;;;;;5.05;4.03;;;10.90;99.90;;;;;;5092880;28;20016;-74
2022/10/23 05:24:24;;;;;;;6.70;3.97;;;10.90;99.90;;;;;;5092366;28;20504;-75
2022/10/23 05:26:51;;;;;;;5.38;3.53;;;10.90;99.90;;;;;;5071960;28;20047;-75
2022/10/23 05:29:18;;;;;;;5.07;3.67;;;10.90;99.90;;;;;;5088218;28;20055;-74
2022/10/23 05:31:47;;;;;;;6.75;3.38;;;10.90;99.90;;;;;;5089993;28;20032;-74
2022/10/23 05:34:15;;;;;;;6.85;4.03;;;10.90;99.90;;;;;;5094099;28;20541;-75
2022/10/23 05:36:41;;;;;;;6.20;4.30;;;10.90;99.90;;;;;;5088859;28;20107;-75
2022/10/23 05:39:07;;;;;;;9.88;4.13;;;10.90;99.90;;;;;;5091507;28;20055;-74
2022/10/23 05:41:36;;;;;;;12.30;4.28;;;10.90;99.90;;;;;;5091118;28;20056;-75
2022/10/23 05:44:07;;;;;;;5.63;3.80;;;10.90;99.90;;;;;;5091730;28;20055;-75
2022/10/23 05:46:33;;;;;;;6.18;3.97;;;10.80;99.90;;;;;;5086043;28;20025;-75
2022/10/23 05:48:59;;;;;;;11.77;3.80;;;10.80;99.90;;;;;;5082059;28;20610;-75
2022/10/23 05:51:24;;;;;;;6.70;3.70;;;10.80;99.90;;;;;;5075171;28;20393;-74
2022/10/23 05:53:51;;;;;;;10.77;4.30;;;10.80;99.90;;;;;;5094325;28;20020;-74
2022/10/23 05:56:22;;;;;;;7.82;4.20;;;10.80;99.90;;;;;;5095193;28;20024;-74
2022/10/23 05:58:48;;;;;;;7.63;3.47;;;10.80;99.90;;;;;;5080446;28;20044;-74
2022/10/23 06:01:16;;;;;;;6.53;3.70;;;10.90;99.90;;;;;;5090226;28;20365;-75
2022/10/23 06:03:41;;;;;;;8.70;3.85;;;10.90;99.90;;;;;;5088752;28;20024;-74
2022/10/23 06:06:13;;;;;;;10.27;4.63;;;10.90;99.90;;;;;;5092004;28;20013;-74
2022/10/23 06:08:38;;;;;;;7.57;3.80;;;10.90;99.90;;;;;;5094681;28;20035;-75
2022/10/23 06:11:06;;;;;;;5.97;4.10;;;10.90;99.90;;;;;;5094844;28;20036;-75
2022/10/23 06:13:35;;;;;;;9.52;4.40;;;10.90;99.90;;;;;;5094150;28;20024;-74
2022/10/23 06:16:20;;;;;;;9.77;4.65;;;10.90;99.90;;;;;;5092316;28;20384;-74
2022/10/23 06:18:46;;;;;;;6.38;4.32;;;10.90;99.90;;;;;;5088847;28;20031;-75
2022/10/23 06:21:16;;;;;;;10.68;4.40;;;10.90;99.90;;;;;;5072361;28;20020;-75
2022/10/23 06:23:46;;;;;;;8.65;4.03;;;10.90;99.90;;;;;;5095083;28;20055;-75
2022/10/23 06:26:16;;;;;;;6.80;4.00;;;10.90;99.90;;;;;;5075507;28;20438;-75
2022/10/23 06:28:42;;;;;;;11.10;4.43;;;10.90;99.90;;;;;;5082767;28;20545;-75
2022/10/23 06:31:13;;;;;;;7.65;3.83;;;10.90;99.90;;;;;;5072756;28;20028;-75
2022/10/23 06:33:40;;;;;;;5.85;4.10;;;10.90;99.90;;;;;;5088729;28;20161;-73
2022/10/23 06:36:18;;;;;;;5.97;4.10;;;10.90;99.90;;;;;;5091674;28;20120;-75
2022/10/23 06:38:43;;;;;;;7.85;4.20;;;11.00;99.90;;;;;;5074027;28;20081;-73
2022/10/23 06:41:17;;;;;;;7.50;3.90;;;11.00;99.90;;;;;;5093456;28;20021;-73
2022/10/23 06:43:47;;;;;;;;;;;11.00;99.90;;;;;;5068432;28;20016;-73
2022/10/23 06:46:12;;;;;;;12.18;5.05;;;11.10;99.90;;;;;;5078657;28;19914;-74
2022/10/23 06:48:42;;;;;;;6.90;3.70;;;11.10;99.90;;;;;;5069940;28;20388;-73
2022/10/23 06:51:13;;;;;;;5.63;4.13;;;11.10;99.90;;;;;;5093047;28;20027;-74
2022/10/23 06:53:39;;;;;;;11.30;5.53;;;11.10;99.90;;;;;;5092519;28;20372;-73
2022/10/23 06:56:06;;;;;;;7.70;4.78;;;11.20;99.90;;;;;;5073403;28;20035;-72
2022/10/23 06:58:33;;;;;;;7.30;3.90;;;11.10;99.90;;;;;;5073182;28;20107;-73
2022/10/23 07:01:08;;;;;;;7.32;3.47;;;11.20;99.90;;;;;;5089573;28;20499;-73
2022/10/23 07:03:34;;;;;;;6.00;3.83;;;11.20;99.90;;;;;;5073195;28;20028;-73
2022/10/23 07:06:01;;;;;;;5.18;3.15;;;11.20;99.90;;;;;;5098549;28;20023;-72
2022/10/23 07:08:27;;;;;;;8.85;4.45;;;11.20;99.90;;;;;;5093637;28;20039;-73
2022/10/23 07:10:53;;;;;;;7.28;4.35;;;11.30;99.90;;;;;;5087546;28;20025;-72
2022/10/23 07:13:23;;;;;;;9.20;4.45;;;11.30;99.90;;;;;;5076097;28;20026;-72
2022/10/23 07:15:49;;;;;;;5.88;4.40;;;11.30;99.90;;;;;;5090853;28;21573;-73
2022/10/23 07:18:15;;;;;;;9.13;4.68;;;11.40;99.90;;;;;;5074424;28;20023;-73
2022/10/23 07:20:48;;;;;;;6.55;5.55;;;11.40;99.90;;;;;;5091697;28;20039;-73
2022/10/23 07:23:15;;;;;;;9.60;5.20;;;11.50;99.90;;;;;;5091473;28;20107;-73
2022/10/23 07:25:41;;;;;;;6.90;4.88;;;11.50;99.90;;;;;;5091190;28;20020;-74
2022/10/23 07:28:07;;;;;;;11.88;6.10;;;11.60;99.90;;;;;;5089618;28;20051;-76
2022/10/23 07:30:33;;;;;;;8.07;4.75;;;11.60;99.90;;;;;;5091560;28;20020;-75
2022/10/23 07:32:58;;;;;;;15.10;4.65;;;11.70;99.90;;;;;;5082635;28;20054;-75
2022/10/23 07:35:24;;;;;;;8.70;5.20;;;11.70;99.90;;;;;;5068674;28;20024;-75
2022/10/23 07:37:50;;;;;;;7.05;4.80;;;11.80;99.90;;;;;;5092525;28;21312;-75
2022/10/23 07:40:17;;;;;;;9.68;4.28;;;11.80;99.90;;;;;;5069493;28;20034;-75
2022/10/23 07:42:43;;;;;;;8.80;4.20;;;11.90;99.90;;;;;;5094167;28;20114;-76
2022/10/23 07:45:10;;;;;;;7.80;4.80;;;12.00;99.90;;;;;;5071991;28;20111;-75
2022/10/23 07:47:35;;;;;;;7.60;4.50;;;12.00;99.90;;;;;;5069175;28;20060;-76
2022/10/23 07:50:01;;;;;;;6.43;3.83;;;12.10;99.90;;;;;;5073575;28;20081;-76
2022/10/23 07:52:26;;;;;;;5.40;3.67;;;12.20;99.90;;;;;;5069841;28;20020;-76
2022/10/23 07:54:52;;;;;;;4.70;3.08;;;12.20;99.90;;;;;;5069940;28;20081;-76
2022/10/23 07:57:18;;;;;;;10.25;3.53;;;12.30;99.90;;;;;;5067902;28;20032;-76
2022/10/23 07:59:44;;;;;;;8.45;3.88;;;12.30;99.90;;;;;;5091672;28;20104;-75
2022/10/23 08:02:14;;;;;;;5.00;3.00;;;12.40;99.90;;;;;;5070716;28;20046;-76
2022/10/23 08:04:42;;;;;;;8.07;4.07;;;12.40;99.90;;;;;;5090327;28;20107;-76
2022/10/23 08:07:08;;;;;;;9.18;3.80;;;12.50;99.90;;;;;;5088450;28;20170;-75
2022/10/23 08:09:34;;;;;;;5.72;3.28;;;12.50;99.90;;;;;;4934842;28;20129;-76
2022/10/23 08:12:00;;;;;;;9.23;4.32;;;12.60;99.90;;;;;;5005406;28;20038;-76
2022/10/23 08:14:27;;;;;;;8.65;3.38;;;12.70;99.90;;;;;;4992440;28;20482;-76
2022/10/23 08:16:53;;;;;;;4.50;2.88;;;12.80;99.90;;;;;;5008812;28;20030;-77
2022/10/23 08:19:18;;;;;;;5.15;2.55;;;12.90;99.90;;;;;;5007805;28;20040;-77
2022/10/23 08:21:44;;;;;;;6.07;2.83;;;13.00;99.90;;;;;;4995933;28;20040;-76
2022/10/23 08:24:13;;;;;;;6.47;2.88;;;13.00;99.90;;;;;;5003956;28;20128;-76
2022/10/23 08:26:49;;;;;;;5.47;2.47;;;13.10;99.90;;;;;;4994070;28;20060;-75
2022/10/23 08:29:20;;;;;;;4.57;3.20;;;13.10;99.90;;;;;;5005366;28;20053;-76
2022/10/23 08:31:51;;;;;;;8.18;3.90;;;13.20;99.90;;;;;;4988347;28;20057;-76
2022/10/23 08:34:20;;;;;;;6.25;2.97;;;13.20;99.90;;;;;;5009847;28;20044;-77
2022/10/23 08:36:49;;;;;;;9.05;3.88;;;13.20;99.90;;;;;;5008817;28;20022;-77
2022/10/23 08:39:14;;;;;;;4.25;3.05;;;13.30;99.90;;;;;;5000344;28;20479;-76
2022/10/23 08:41:49;;;;;;;5.47;3.42;;;13.40;99.90;;;;;;5004907;28;20029;-76
2022/10/23 08:45:06;;;;;;;8.40;3.30;;;13.40;99.90;;;;;;4992351;28;20029;-77
2022/10/23 08:47:44;;;;;;;9.20;2.92;;;13.60;99.90;;;;;;4983548;28;20034;-76
2022/10/23 08:50:21;;;;;;;3.90;2.58;;;13.70;99.90;;;;;;5007790;28;20487;-76
2022/10/23 08:53:11;;;;;;;4.70;2.83;;;13.70;99.90;;;;;;4988036;28;20037;-76
2022/10/23 08:55:44;;;;;;;3.67;2.88;;;13.80;99.90;;;;;;4990858;28;20041;-75
2022/10/23 08:58:19;;;;;;;7.07;2.80;;;13.90;99.90;;;;;;5009777;28;20022;-76
2022/10/23 09:00:50;;;;;;;9.52;3.08;;;14.00;99.90;;;;;;5008176;28;20107;-76
2022/10/23 09:03:16;;;;;;;6.28;2.55;;;14.00;99.90;;;;;;5008421;28;20429;-76
2022/10/23 09:06:00;;;;;;;4.68;2.90;;;14.00;99.90;;;;;;5007524;28;20026;-76
2022/10/23 09:08:44;;;;;;;5.35;2.60;;;14.10;99.90;;;;;;4993204;28;20491;-76
2022/10/23 09:11:26;;;;;;;7.95;3.35;;;14.20;99.90;;;;;;5008270;28;20025;-77
2022/10/23 09:14:33;;;;;;;4.15;2.40;;;14.30;99.90;;;;;;5007751;28;20053;-76
2022/10/23 09:17:07;;;;;;;3.35;2.40;;;14.40;99.90;;;;;;4996835;28;20124;-77
2022/10/23 09:19:36;;;;;;;3.55;2.22;;;14.40;99.90;;;;;;5003461;28;20116;-76
2022/10/23 09:22:04;;;;;;;3.05;1.75;;;14.50;99.90;;;;;;4987762;28;20172;-76
2022/10/23 09:24:31;;;;;;;5.15;2.40;;;14.50;99.90;;;;;;4992022;28;20083;-76
2022/10/23 09:26:59;;;;;;;4.05;1.80;;;14.60;99.90;;;;;;4991408;28;20037;-76
2022/10/23 09:29:34;;;;;;;3.92;1.75;;;14.70;99.90;;;;;;4998378;28;20045;-76
2022/10/23 09:32:03;;;;;;;6.10;2.45;;;14.80;99.90;;;;;;5004389;28;20542;-76
2022/10/23 09:34:30;;;;;;;6.63;2.60;;;14.80;99.90;;;;;;4988599;28;20033;-76
2022/10/23 09:37:01;;;;;;;4.88;2.53;;;15.00;99.90;;;;;;4991102;28;20041;-75
2022/10/23 09:39:35;;;;;;;20.85;3.50;;;15.00;99.90;;;;;;5006685;28;20382;-75
2022/10/23 09:42:19;;;;;;;8.75;2.92;;;15.00;99.90;;;;;;4994746;28;20028;-75
2022/10/23 09:44:50;;;;;;;4.25;2.55;;;15.10;99.90;;;;;;4984190;28;20036;-75
2022/10/23 09:47:24;;;;;;;6.22;2.55;;;15.20;99.90;;;;;;5002872;28;20037;-75
2022/10/23 09:49:53;;;;;;;7.55;2.42;;;15.30;99.90;;;;;;5006307;28;20029;-76
2022/10/23 09:52:24;;;;;;;4.00;2.10;;;15.30;99.90;;;;;;4993862;28;20028;-76
2022/10/23 09:54:53;;;;;;;4.50;2.05;;;15.40;99.90;;;;;;5014544;28;20025;-77
2022/10/23 09:57:37;;;;;;;2.17;1.75;;;15.50;99.90;;;;;;5005561;28;20030;-75
2022/10/23 10:00:15;;;;;;;7.70;2.78;;;15.50;99.90;;;;;;5004249;28;20394;-73
2022/10/23 10:03:00;;;;;;;3.60;1.92;;;15.60;99.90;;;;;;5007894;28;20056;-75
2022/10/23 10:05:28;;;;;;;2.53;1.67;;;15.70;99.90;;;;;;5008422;28;20037;-74
2022/10/23 10:08:20;;;;;;;6.07;1.60;;;15.80;99.90;;;;;;5000020;28;20022;-73
2022/10/23 10:11:02;;;;;;;5.53;2.00;;;15.90;99.90;;;;;;5006991;28;20053;-74
2022/10/23 10:13:36;;;;;;;4.22;2.08;;;16.00;99.90;;;;;;5005992;28;20054;-74
2022/10/23 10:16:36;;;;;;;5.03;2.30;;;16.00;99.90;;;;;;5007919;28;20026;-75
2022/10/23 10:19:22;;;;;;;3.67;2.10;;;16.10;99.90;;;;;;4983295;28;20052;-74
2022/10/23 10:22:07;;;;;;;1.85;1.40;;;16.10;99.90;;;;;;5000058;28;20389;-74
2022/10/23 10:24:50;;;;;;;4.78;1.40;;;16.30;99.90;;;;;;5002330;28;20025;-74
2022/10/23 10:27:36;;;;;;;2.80;1.55;;;16.30;99.90;;;;;;5009280;28;20038;-75
2022/10/23 10:30:45;;;;;;;4.28;1.83;;;16.40;99.90;;;;;;4980210;28;20474;-76
2022/10/23 10:33:24;;;;;;;7.22;1.60;;;16.50;99.90;;;;;;5012732;28;20026;-74
2022/10/23 10:36:06;;;;;;;5.10;1.40;;;16.60;99.90;;;;;;5003811;28;20041;-74
2022/10/23 10:38:34;;;;;;;5.75;1.90;;;16.60;99.90;;;;;;4982850;28;20043;-74
2022/10/23 10:41:29;;;;;;;4.55;1.65;;;16.60;99.90;;;;;;5012889;28;20058;-76
2022/10/23 10:43:58;;;;;;;3.85;1.92;;;16.70;99.90;;;;;;4997618;28;20421;-75
2022/10/23 10:47:08;;;;;;;2.70;1.42;;;16.70;99.90;;;;;;5016441;28;20034;-75
2022/10/23 10:49:40;;;;;;;2.15;1.00;;;16.70;99.90;;;;;;5001185;28;20034;-74
2022/10/23 10:52:27;;;;;;;3.53;1.48;;;16.80;99.90;;;;;;5013476;28;20418;-74
2022/10/23 10:54:59;;;;;;;2.67;1.33;;;16.80;99.90;;;;;;5009915;28;20025;-74
2022/10/23 10:57:35;;;;;;;3.90;1.27;;;16.90;99.90;;;;;;5007119;28;20029;-75
2022/10/23 11:00:19;;;;;;;4.65;1.35;;;16.90;99.90;;;;;;4983654;28;20391;-75
2022/10/23 11:02:48;;;;;;;2.03;1.38;;;16.90;99.90;;;;;;5009013;28;20036;-75
2022/10/23 11:05:18;;;;;;;3.00;1.13;;;17.00;99.90;;;;;;4992854;28;20029;-74
2022/10/23 11:07:53;;;;;;;1.60;0.88;;;17.00;99.90;;;;;;5001619;28;20026;-74
2022/10/23 11:10:19;;;;;;;3.38;1.50;;;17.10;99.90;;;;;;4992248;28;20026;-74
2022/10/23 11:12:46;;;;;;;2.22;1.13;;;17.10;99.90;;;;;;4995995;28;20038;-74
2022/10/23 11:15:20;;;;;;;3.30;1.20;;;17.10;99.90;;;;;;5008663;28;20395;-74
2022/10/23 11:17:55;;;;;;;;;;;17.10;99.90;;;;;;5011348;28;20033;-74
2022/10/23 11:20:26;;;;;;;3.65;0.88;;;17.20;99.90;;;;;;5008759;28;19909;-75
2022/10/23 11:23:20;;;;;;;2.53;1.08;;;17.20;99.90;;;;;;4992564;28;20026;-75
2022/10/23 11:25:54;;;;;;;1.60;1.00;;;17.30;99.90;;;;;;5007944;28;20029;-76
2022/10/23 11:28:41;;;;;;;2.33;1.20;;;17.30;99.90;;;;;;5007793;28;20033;-75
2022/10/23 11:31:32;;;;;;;7.40;1.83;;;17.40;99.90;;;;;;4990133;28;20040;-74
2022/10/23 11:34:00;;;;;;;11.00;2.03;;;17.50;99.90;;;;;;4994158;28;20030;-74
2022/10/23 11:36:44;;;;;;;6.93;1.83;;;17.60;99.90;;;;;;5011362;28;20036;-75
2022/10/23 11:39:31;;;;;;;3.15;1.25;;;17.60;99.90;;;;;;4993272;28;20061;-75
2022/10/23 11:42:30;;;;;;;4.78;0.80;;;17.70;99.90;;;;;;4998246;28;20018;-75
2022/10/23 11:44:55;;;;;;;2.58;1.48;;;17.80;99.90;;;;;;4992207;28;20026;-74
2022/10/23 11:47:36;;;;;;;5.13;1.38;;;17.90;99.90;;;;;;5001070;28;20046;-73
2022/10/23 11:50:07;;;;;;;4.97;1.73;;;18.00;99.90;;;;;;5007600;28;20404;-73
2022/10/23 11:52:39;;;;;;;4.90;1.70;;;18.10;99.90;;;;;;5010278;28;20034;-75
2022/10/23 11:55:16;;;;;;;3.53;1.70;;;18.20;99.90;;;;;;5006076;28;20132;-76
2022/10/23 11:57:44;;;;;;;3.67;1.88;;;18.30;99.90;;;;;;5019402;28;20073;-76
2022/10/23 12:00:22;;;;;;;2.78;1.48;;;18.40;99.90;;;;;;5000184;28;20022;-77
2022/10/23 12:02:54;;;;;;;3.80;1.63;;;18.50;99.90;;;;;;4994009;28;20037;-76
2022/10/23 12:05:39;;;;;;;3.17;1.23;;;18.50;99.90;;;;;;5007642;28;20058;-76
2022/10/23 12:08:17;;;;;;;2.13;1.30;;;18.60;99.90;;;;;;5027576;28;20032;-75
2022/10/23 12:10:45;;;;;;;2.83;1.48;;;18.70;99.90;;;;;;5032739;28;20025;-76
2022/10/23 12:13:36;;;;;;;2.05;1.30;;;18.80;99.90;;;;;;5014882;28;20029;-77
2022/10/23 12:16:08;;;;;;;2.85;1.55;;;18.90;99.90;;;;;;4996965;28;20077;-76
2022/10/23 12:18:54;;;;;;;2.65;1.38;;;18.90;99.90;;;;;;5012741;28;20025;-77
2022/10/23 12:21:27;;;;;;;5.32;1.98;;;19.00;99.90;;;;;;5010400;28;20097;-76
2022/10/23 12:24:09;;;;;;;5.45;1.33;;;19.10;99.90;;;;;;5011978;28;20054;-76
2022/10/23 12:26:53;;;;;;;3.78;1.45;;;19.10;99.90;;;;;;5011422;28;20396;-76
2022/10/23 12:29:39;;;;;;;2.15;1.58;;;19.20;99.90;;;;;;5028481;28;20100;-75
2022/10/23 12:32:29;;;;;;;4.07;1.77;;;19.30;99.90;;;;;;5014445;28;20075;-77
2022/10/23 12:35:16;;;;;;;4.82;1.67;;;19.30;99.90;;;;;;5011085;28;20033;-75
2022/10/23 12:37:48;;;;;;;4.22;2.10;;;19.30;99.90;;;;;;5005951;28;20534;-77
2022/10/23 12:40:14;;;;;;;4.30;1.50;;;19.40;99.90;;;;;;5007203;28;20023;-76
2022/10/23 12:42:48;;;;;;;2.10;1.63;;;19.50;99.90;;;;;;5011699;28;20028;-76
2022/10/23 12:45:25;;;;;;;3.63;1.83;;;19.50;99.90;;;;;;5006282;28;20109;-75
2022/10/23 12:47:51;;;;;;;3.60;1.42;;;19.60;99.90;;;;;;5006697;28;20029;-76
2022/10/23 12:50:23;;;;;;;3.80;1.90;;;19.60;99.90;;;;;;5013027;28;20482;-75
2022/10/23 12:53:01;;;;;;;5.70;1.92;;;19.70;99.90;;;;;;4998878;28;20026;-75
2022/10/23 12:55:31;;;;;;;2.58;1.63;;;19.70;99.90;;;;;;5011338;28;21405;-75
2022/10/23 12:57:57;;;;;;;5.70;1.45;;;19.80;99.90;;;;;;5002187;28;20022;-75
2022/10/23 13:00:24;;;;;;;4.00;1.27;;;19.80;99.90;;;;;;5009815;28;20033;-75
2022/10/23 13:03:03;;;;;;;3.80;1.85;;;19.80;99.90;;;;;;5001251;28;20034;-75
2022/10/23 13:05:30;;;;;;;4.40;0.90;;;19.80;99.90;;;;;;4987629;28;20479;-75
2022/10/23 13:07:58;;;;;;;3.13;1.30;;;19.90;99.90;;;;;;5000743;28;21041;-75
2022/10/23 13:10:24;;;;;;;3.70;0.82;;;19.90;99.90;;;;;;5004123;28;20862;-75
2022/10/23 13:12:57;;;;;;;3.53;0.90;;;19.90;99.90;;;;;;5003191;28;20026;-75
2022/10/23 13:15:25;;;;;;;5.85;1.30;;;19.80;99.90;;;;;;5010019;28;20026;-74